Rochester/St. Mary\'s Hospita, MN

4:43 PM CDT on August 16, 2017 (GMT -0500)
Rochester/St. Mary\'s Hospita

Weather History for K9MN - June, 2017

Change the Weather History Date:

Monday, June 19, 2017

  Actual Average (KRST) Record (KRST)
Temperature  
Mean Temperature 64 °F -  
Max Temperature 70 °F 78 °F 97 °F (1953)
Min Temperature 58 °F 56 °F 42 °F (1916)
Degree Days  
Heating Degree Days 1    
Growing Degree Days 14 (Base 50)    
Moisture  
Dew Point 52 °F    
Average Humidity 65    
Maximum Humidity 89    
Minimum Humidity 41    
Precipitation  
Precipitation 0.00 in - - ()
Sea Level Pressure  
Sea Level Pressure 29.88 in    
Wind  
Wind Speed 11 mph (West)    
Max Wind Speed 25 mph    
Max Gust Speed 33 mph    
Visibility 10 miles    
Events      
Averages and records for this station are not official NWS values.
T = Trace of Precipitation, MM = Missing Value Source: NWS Daily Summary

Daily Weather History Graph

Daily Weather History Graph

Search for Another Location

Airport or City:

Trip Planner

Search our weather history database for the weather conditions in past years. The results will help you decide how hot, cold, wet, or windy it might be!

Date:

Astronomy

Jun. 19, 2017 Rise Set
Actual Time 5:26 AM CDT 8:56 PM CDT
Civil Twilight 4:50 AM CDT 9:32 PM CDT
Nautical Twilight 4:02 AM CDT 10:20 PM CDT
Astronomical Twilight 3:01 AM CDT 11:21 PM CDT
Moon 2:27 AM CDT (6/19) 3:38 PM CDT (6/19)
Length of Visible Light 16h 42m
Length of Day
15h 29m
Waning Crescent, 26% of the Moon is Illuminated
Jun 19
Waning Crescent
Jun 23
New
Jun 30
First Quarter
Jul 8
Full
Jul 16
Last Quarter

Hourly Weather History & Observations

Time (CDT) Temp. Dew Point Humidity Pressure Visibility Wind Dir Wind Speed Gust Speed Precip Events Conditions
12:13 AM 62.1 °F 55.6 °F 79% 29.80 in 10.0 mi West 8.1 mph - N/A   Clear
12:32 AM 61.7 °F 55.6 °F 80% 29.80 in 10.0 mi West 6.9 mph - N/A   Clear
12:52 AM 61.7 °F 55.8 °F 81% 29.80 in 10.0 mi West 8.1 mph - N/A   Clear
1:13 AM 61.7 °F 55.9 °F 81% 29.80 in 10.0 mi West 6.9 mph - N/A   Mostly Cloudy
1:32 AM 61.7 °F 56.1 °F 82% 29.80 in 10.0 mi West 9.2 mph - N/A   Mostly Cloudy
1:52 AM 61.2 °F 56.3 °F 84% 29.81 in 10.0 mi WNW 8.1 mph - N/A   Mostly Cloudy
2:13 AM 61.0 °F 56.3 °F 85% 29.81 in 10.0 mi West 8.1 mph - N/A   Overcast
2:32 AM 61.2 °F 56.3 °F 84% 29.81 in 10.0 mi West 8.1 mph - N/A   Overcast
2:52 AM 61.2 °F 56.3 °F 84% 29.80 in 10.0 mi West 5.8 mph - N/A   Overcast
3:13 AM 60.8 °F 56.3 °F 85% 29.81 in 10.0 mi West 8.1 mph - N/A   Mostly Cloudy
3:32 AM 60.4 °F 55.9 °F 85% 29.81 in 10.0 mi WSW 8.1 mph - N/A   Mostly Cloudy
3:52 AM 59.9 °F 55.6 °F 86% 29.82 in 10.0 mi West 8.1 mph - N/A   Scattered Clouds
4:13 AM 59.4 °F 55.2 °F 86% 29.82 in 10.0 mi West 8.1 mph - N/A   Clear
4:32 AM 58.8 °F 54.9 °F 87% 29.82 in 10.0 mi West 9.2 mph - N/A   Clear
4:52 AM 58.5 °F 54.7 °F 87% 29.82 in 10.0 mi West 10.4 mph - N/A   Clear
5:13 AM 58.1 °F 54.5 °F 88% 29.83 in 10.0 mi West 10.4 mph 17.3 mph N/A   Clear
5:32 AM 58.1 °F 54.7 °F 88% 29.83 in 10.0 mi West 10.4 mph 16.1 mph N/A   Clear
5:52 AM 58.1 °F 54.9 °F 89% 29.84 in 10.0 mi West 8.1 mph - N/A   Clear
6:13 AM 58.1 °F 54.9 °F 89% 29.84 in 10.0 mi West 8.1 mph - N/A   Clear
6:32 AM 58.5 °F 55.2 °F 89% 29.85 in 10.0 mi West 9.2 mph - N/A   Clear
6:52 AM 58.6 °F 55.2 °F 88% 29.85 in 10.0 mi West 12.7 mph - N/A   Clear
7:13 AM 59.4 °F 55.4 °F 87% 29.85 in 10.0 mi West 11.5 mph 17.3 mph N/A   Clear
7:32 AM 59.5 °F 55.6 °F 87% 29.86 in 10.0 mi WNW 17.3 mph 21.9 mph N/A   Clear
7:52 AM 60.1 °F 55.9 °F 86% 29.87 in 10.0 mi WNW 11.5 mph 18.4 mph N/A   Mostly Cloudy
8:13 AM 60.4 °F 55.9 °F 85% 29.87 in 10.0 mi West 18.4 mph 23.0 mph N/A   Overcast
8:32 AM 61.2 °F 56.1 °F 83% 29.88 in 10.0 mi WNW 13.8 mph 20.7 mph N/A   Overcast
8:52 AM 61.2 °F 54.9 °F 80% 29.88 in 10.0 mi WNW 16.1 mph 20.7 mph N/A   Scattered Clouds
9:12 AM 63.0 °F 53.6 °F 71% 29.89 in 10.0 mi NW 11.5 mph 17.3 mph N/A   Scattered Clouds
9:32 AM 63.7 °F 50.7 °F 63% 29.89 in 10.0 mi WNW 13.8 mph 20.7 mph N/A   Scattered Clouds
9:52 AM 64.9 °F 50.7 °F 60% 29.89 in 10.0 mi WNW 15.0 mph 20.7 mph N/A   Scattered Clouds
10:13 AM 65.1 °F 50.9 °F 60% 29.88 in 10.0 mi WNW 15.0 mph 21.9 mph N/A   Mostly Cloudy
10:32 AM 65.7 °F 50.7 °F 58% 29.89 in 10.0 mi West 10.4 mph 20.7 mph N/A   Mostly Cloudy
10:52 AM 66.2 °F 50.2 °F 56% 29.88 in 10.0 mi WNW 12.7 mph 26.5 mph N/A   Mostly Cloudy
11:13 AM 65.5 °F 49.8 °F 57% 29.89 in 10.0 mi WNW 17.3 mph 25.3 mph N/A   Overcast
11:32 AM 66.0 °F 50.0 °F 56% 29.89 in 10.0 mi West 17.3 mph 23.0 mph N/A   Mostly Cloudy
11:53 AM 67.1 °F 50.0 °F 54% 29.89 in 10.0 mi West 15.0 mph 26.5 mph N/A   Overcast
12:12 PM 66.6 °F 49.6 °F 54% 29.89 in 10.0 mi WNW 19.6 mph 28.8 mph N/A   Mostly Cloudy
12:32 PM 66.4 °F 50.7 °F 57% 29.89 in 10.0 mi West 16.1 mph 24.2 mph N/A   Overcast
12:52 PM 67.5 °F 51.1 °F 56% 29.88 in 10.0 mi West 18.4 mph 26.5 mph N/A   Scattered Clouds
1:12 PM 68.2 °F 49.1 °F 50% 29.89 in 10.0 mi West 17.3 mph 31.1 mph N/A   Scattered Clouds
1:33 PM 65.5 °F 51.4 °F 60% 29.88 in 7.0 mi West 18.4 mph 33.4 mph N/A   Mostly Cloudy
1:52 PM 66.2 °F 52.0 °F 60% 29.89 in 10.0 mi West 13.8 mph 26.5 mph N/A   Mostly Cloudy
2:12 PM 67.6 °F 51.3 °F 56% 29.87 in 10.0 mi West 21.9 mph 29.9 mph N/A   Scattered Clouds
2:33 PM 68.9 °F 50.2 °F 51% 29.88 in 10.0 mi West 15.0 mph 27.6 mph N/A   Scattered Clouds
2:52 PM 68.9 °F 49.6 °F 50% 29.89 in 10.0 mi WNW 18.4 mph 31.1 mph N/A   Mostly Cloudy
3:12 PM 65.5 °F 50.9 °F 59% 29.90 in 10.0 mi WNW 17.3 mph 29.9 mph N/A   Overcast
3:33 PM 65.3 °F 51.4 °F 61% 29.90 in 10.0 mi West 15.0 mph 24.2 mph N/A   Mostly Cloudy
3:52 PM 68.0 °F 50.5 °F 54% 29.90 in 10.0 mi West 17.3 mph 24.2 mph N/A   Scattered Clouds
4:12 PM 67.8 °F 49.1 °F 51% 29.90 in 10.0 mi West 16.1 mph 26.5 mph N/A   Scattered Clouds
4:33 PM 68.9 °F 49.8 °F 51% 29.89 in 10.0 mi WNW 19.6 mph 25.3 mph N/A   Scattered Clouds
4:52 PM 69.6 °F 49.5 °F 49% 29.89 in 10.0 mi WNW 25.3 mph 29.9 mph N/A   Clear
5:12 PM 69.3 °F 50.7 °F 52% 29.90 in 10.0 mi NW 11.5 mph 27.6 mph N/A   Mostly Cloudy
5:33 PM 69.3 °F 48.9 °F 48% 29.90 in 10.0 mi WNW 16.1 mph 21.9 mph N/A   Overcast
5:52 PM 69.8 °F 47.5 °F 45% 29.90 in 10.0 mi WNW 19.6 mph 25.3 mph N/A   Overcast
6:12 PM 70.0 °F 46.6 °F 43% 29.90 in 10.0 mi WNW 15.0 mph 25.3 mph N/A   Scattered Clouds
6:33 PM 70.2 °F 45.9 °F 42% 29.90 in 10.0 mi West 19.6 mph 26.5 mph N/A   Scattered Clouds
6:52 PM 69.6 °F 44.8 °F 41% 29.91 in 10.0 mi WNW 19.6 mph 29.9 mph N/A   Scattered Clouds
7:12 PM 69.4 °F 45.3 °F 42% 29.91 in 10.0 mi WNW 18.4 mph 24.2 mph N/A   Scattered Clouds
7:33 PM 69.1 °F 46.2 °F 44% 29.92 in 10.0 mi WNW 15.0 mph 24.2 mph N/A   Clear
7:52 PM 68.5 °F 46.9 °F 46% 29.92 in 10.0 mi WNW 12.7 mph 20.7 mph N/A   Clear
8:12 PM 68.4 °F 47.3 °F 47% 29.92 in 10.0 mi West 17.3 mph 21.9 mph N/A   Clear
8:33 PM 68.0 °F 47.1 °F 47% 29.92 in 10.0 mi West 10.4 mph - N/A   Clear
8:52 PM 67.1 °F 47.5 °F 49% 29.92 in 10.0 mi West 11.5 mph - N/A   Clear
9:12 PM 66.2 °F 47.7 °F 51% 29.93 in 10.0 mi West 6.9 mph - N/A   Clear
9:33 PM 65.5 °F 47.8 °F 53% 29.94 in 10.0 mi West 6.9 mph - N/A   Clear
9:52 PM 64.9 °F 48.2 °F 55% 29.95 in 10.0 mi West 6.9 mph - N/A   Clear
10:12 PM 64.4 °F 48.4 °F 56% 29.95 in 10.0 mi West 5.8 mph - N/A   Clear
10:33 PM 63.7 °F 48.6 °F 58% 29.96 in 10.0 mi WSW 8.1 mph - N/A   Clear
10:52 PM 63.1 °F 48.9 °F 60% 29.96 in 10.0 mi West 6.9 mph - N/A   Clear
11:12 PM 62.6 °F 49.1 °F 61% 29.96 in 10.0 mi West 6.9 mph - N/A   Clear
11:33 PM 62.4 °F 49.3 °F 62% 29.96 in 10.0 mi WSW 6.9 mph - N/A   Clear
11:52 PM 62.1 °F 50.0 °F 65% 29.95 in 10.0 mi West 6.9 mph - N/A   Clear